Time;durP1;ratioP1;P1;durP2;ratioP2;P2;SDS_P1;SDS_P2;PMS_P1;PMS_P2;Temp;Humidity;BMP_temperature;BMP_pressure;BME280_temperature;BME280_humidity;BME280_pressure;Samples;Min_cycle;Max_cycle;Signal;HPM_P1;HPM_P2
2023/05/26 00:00:07;;;;;;;14.07;5.75;;;;;;;;;;5030241;28;20040;-71
2023/05/26 00:02:36;;;;;;;16.73;5.55;;;;;;;;;;5030270;28;20053;-70
2023/05/26 00:05:09;;;;;;;11.43;5.18;;;;;;;;;;5029784;28;20092;-70
2023/05/26 00:07:39;;;;;;;19.80;6.57;;;;;;;;;;5030232;28;20514;-71
2023/05/26 00:10:09;;;;;;;18.70;5.90;;;;;;;;;;5033287;28;20041;-71
2023/05/26 00:12:36;;;;;;;16.05;5.85;;;;;;;;;;5034100;28;20411;-71
2023/05/26 00:15:03;;;;;;;11.48;5.88;;;;;;;;;;5033420;28;20053;-70
2023/05/26 00:17:29;;;;;;;13.00;6.40;;;;;;;;;;5033615;28;20037;-71
2023/05/26 00:19:54;;;;;;;14.10;5.85;;;;;;;;;;5034106;28;20113;-71
2023/05/26 00:22:21;;;;;;;13.38;5.97;;;;;;;;;;5033603;28;20055;-71
2023/05/26 00:24:46;;;;;;;14.18;5.78;;;;;;;;;;5048873;28;20049;-70
2023/05/26 00:27:13;;;;;;;20.83;6.97;;;;;;;;;;5033448;28;20462;-70
2023/05/26 00:29:39;;;;;;;13.55;5.95;;;;;;;;;;5033660;28;20029;-70
2023/05/26 00:32:05;;;;;;;12.48;5.47;;;;;;;;;;5033753;28;20100;-70
2023/05/26 00:34:35;;;;;;;11.63;5.55;;;;;;;;;;5031915;28;20403;-70
2023/05/26 00:37:03;;;;;;;15.20;5.78;;;;;;;;;;5032264;28;20083;-70
2023/05/26 00:39:30;;;;;;;12.07;4.78;;;;;;;;;;5033547;28;20028;-71
2023/05/26 00:41:56;;;;;;;13.88;6.15;;;;;;;;;;5032143;28;20037;-71
2023/05/26 00:44:22;;;;;;;10.50;5.25;;;;;;;;;;5032293;28;20032;-71
2023/05/26 00:46:48;;;;;;;9.35;5.00;;;;;;;;;;5045143;28;20028;-71
2023/05/26 00:49:14;;;;;;;10.25;5.47;;;;;;;;;;5018645;28;20095;-71
2023/05/26 00:51:40;;;;;;;13.00;5.68;;;;;;;;;;5030343;28;20041;-70
2023/05/26 00:54:09;;;;;;;12.98;5.25;;;;;;;;;;5030336;28;20017;-72
2023/05/26 00:56:35;;;;;;;8.35;5.28;;;;;;;;;;5036230;28;20108;-72
2023/05/26 00:59:03;;;;;;;12.82;5.55;;;;;;;;;;5052779;28;20078;-72
2023/05/26 01:01:35;;;;;;;10.27;5.00;;;;;;;;;;5049188;28;20037;-72
2023/05/26 01:04:00;;;;;;;8.45;5.10;;;;;;;;;;5032885;28;20083;-72
2023/05/26 01:06:26;;;;;;;20.33;5.20;;;;;;;;;;5041627;28;21087;-71
2023/05/26 01:08:52;;;;;;;17.63;5.93;;;;;;;;;;5024405;28;20034;-72
2023/05/26 01:11:26;;;;;;;14.55;5.88;;;;;;;;;;5029327;28;20128;-72
2023/05/26 01:14:05;;;;;;;13.23;5.97;;;;;;;;;;5034782;28;20033;-72
2023/05/26 01:16:42;;;;;;;8.70;5.45;;;;;;;;;;5050032;28;20380;-72
2023/05/26 01:19:16;;;;;;;9.48;5.53;;;;;;;;;;5032434;28;20037;-72
2023/05/26 01:21:44;;;;;;;10.25;5.35;;;;;;;;;;5031003;28;20037;-72
2023/05/26 01:24:49;;;;;;;12.38;5.55;;;;;;;;;;5033608;28;20530;-72
2023/05/26 01:27:39;;;;;;;12.40;5.68;;;;;;;;;;5031748;28;20514;-72
2023/05/26 01:30:06;;;;;;;11.45;5.72;;;;;;;;;;5032204;28;20045;-72
2023/05/26 01:32:31;;;;;;;11.13;5.18;;;;;;;;;;5032115;28;20022;-70
2023/05/26 01:34:57;;;;;;;16.95;5.82;;;;;;;;;;5033293;28;20036;-71
2023/05/26 01:37:23;;;;;;;8.48;5.30;;;;;;;;;;5031567;28;20099;-71
2023/05/26 01:39:49;;;;;;;17.98;5.53;;;;;;;;;;5032038;28;20110;-70
2023/05/26 01:42:26;;;;;;;16.80;6.22;;;;;;;;;;5031764;28;20077;-70
2023/05/26 01:44:58;;;;;;;11.13;5.05;;;;;;;;;;5031492;28;20506;-71
2023/05/26 01:47:26;;;;;;;12.75;6.10;;;;;;;;;;5033215;28;20376;-70
2023/05/26 01:49:52;;;;;;;12.27;6.07;;;;;;;;;;5033092;28;20403;-71
2023/05/26 01:52:18;;;;;;;11.60;5.82;;;;;;;;;;5031736;28;20446;-70
2023/05/26 01:54:48;;;;;;;13.32;5.75;;;;;;;;;;5031302;28;20045;-72
2023/05/26 01:57:16;;;;;;;9.90;5.65;;;;;;;;;;5032769;28;20041;-72
2023/05/26 01:59:42;;;;;;;15.73;6.43;;;;;;;;;;5031623;28;20030;-73
2023/05/26 02:02:08;;;;;;;11.35;5.97;;;;;;;;;;5028178;28;20041;-72
2023/05/26 02:04:37;;;;;;;12.48;5.60;;;;;;;;;;5041760;28;20107;-71
2023/05/26 02:07:06;;;;;;;8.38;5.38;;;;;;;;;;5037705;28;20113;-71
2023/05/26 02:09:32;;;;;;;17.92;5.80;;;;;;;;;;5041408;28;20032;-72
2023/05/26 02:11:58;;;;;;;12.68;6.13;;;;;;;;;;5022980;28;20041;-72
2023/05/26 02:14:24;;;;;;;15.63;6.13;;;;;;;;;;5011135;28;20049;-72
2023/05/26 02:16:50;;;;;;;10.68;5.80;;;;;;;;;;5021752;28;20380;-72
2023/05/26 02:19:17;;;;;;;13.25;6.30;;;;;;;;;;5027509;28;20025;-71
2023/05/26 02:21:44;;;;;;;11.77;5.47;;;;;;;;;;5043796;28;20029;-72
2023/05/26 02:24:10;;;;;;;17.58;6.47;;;;;;;;;;5044957;28;20017;-72
2023/05/26 02:26:37;;;;;;;16.95;5.78;;;;;;;;;;5046169;28;20414;-72
2023/05/26 02:29:02;;;;;;;11.63;5.88;;;;;;;;;;5037600;28;20033;-70
2023/05/26 02:31:28;;;;;;;18.73;6.10;;;;;;;;;;5047211;28;20029;-71
2023/05/26 02:33:54;;;;;;;11.57;5.60;;;;;;;;;;5049822;28;20099;-72
2023/05/26 02:36:20;;;;;;;26.77;8.00;;;;;;;;;;5028153;28;20041;-71
2023/05/26 02:38:46;;;;;;;14.73;6.88;;;;;;;;;;5027927;28;20032;-71
2023/05/26 02:41:13;;;;;;;18.05;6.65;;;;;;;;;;5028248;28;20041;-70
2023/05/26 02:43:39;;;;;;;12.25;5.50;;;;;;;;;;5029417;28;20021;-71
2023/05/26 02:46:05;;;;;;;13.82;5.88;;;;;;;;;;5028020;28;20045;-70
2023/05/26 02:48:31;;;;;;;22.23;6.53;;;;;;;;;;5026423;28;20108;-70
2023/05/26 02:50:59;;;;;;;12.07;5.80;;;;;;;;;;5027540;28;20454;-71
2023/05/26 02:53:25;;;;;;;12.25;5.93;;;;;;;;;;5030375;28;20037;-70
2023/05/26 02:55:51;;;;;;;20.08;6.72;;;;;;;;;;5048465;28;20048;-72
2023/05/26 02:58:17;;;;;;;19.65;7.53;;;;;;;;;;5042101;28;20120;-71
2023/05/26 03:00:42;;;;;;;20.98;7.03;;;;;;;;;;5027121;28;20033;-70
2023/05/26 03:03:08;;;;;;;16.13;7.32;;;;;;;;;;5022412;28;20033;-71
2023/05/26 03:05:34;;;;;;;25.02;7.82;;;;;;;;;;5024542;28;20434;-70
2023/05/26 03:08:03;;;;;;;17.92;7.55;;;;;;;;;;5039089;28;20104;-72
2023/05/26 03:10:29;;;;;;;28.38;8.32;;;;;;;;;;5048201;28;20491;-71
2023/05/26 03:12:54;;;;;;;17.15;8.10;;;;;;;;;;5041630;28;20062;-71
2023/05/26 03:15:24;;;;;;;18.80;7.53;;;;;;;;;;5027950;28;20033;-72
2023/05/26 03:17:51;;;;;;;21.30;8.35;;;;;;;;;;5028856;28;20052;-70
2023/05/26 03:20:18;;;;;;;19.02;7.35;;;;;;;;;;5027393;28;20028;-71
2023/05/26 03:22:44;;;;;;;21.58;8.15;;;;;;;;;;5026385;28;20395;-70
2023/05/26 03:25:09;;;;;;;20.95;7.43;;;;;;;;;;5027081;28;20029;-72
2023/05/26 03:27:43;;;;;;;17.08;7.32;;;;;;;;;;5021716;28;20056;-72
2023/05/26 03:30:09;;;;;;;21.05;7.80;;;;;;;;;;5026769;28;20037;-72
2023/05/26 03:32:39;;;;;;;15.30;7.32;;;;;;;;;;5027540;28;20109;-72
2023/05/26 03:35:05;;;;;;;23.77;7.40;;;;;;;;;;5027001;28;20042;-72
2023/05/26 03:37:31;;;;;;;18.05;7.25;;;;;;;;;;5027997;28;20057;-73
2023/05/26 03:39:58;;;;;;;19.38;7.80;;;;;;;;;;5028504;28;20026;-73
2023/05/26 03:42:26;;;;;;;16.95;7.28;;;;;;;;;;5028067;28;20080;-72
2023/05/26 03:44:52;;;;;;;13.45;7.35;;;;;;;;;;5022433;28;20504;-72
2023/05/26 03:47:17;;;;;;;15.32;7.18;;;;;;;;;;4995550;28;20028;-72
2023/05/26 03:49:43;;;;;;;19.15;8.38;;;;;;;;;;5052524;28;20128;-72
2023/05/26 03:52:09;;;;;;;15.20;7.63;;;;;;;;;;5027746;28;20013;-71
2023/05/26 03:54:35;;;;;;;20.88;7.85;;;;;;;;;;5040503;28;20038;-72
2023/05/26 03:57:03;;;;;;;25.13;9.07;;;;;;;;;;5031025;28;20539;-72
2023/05/26 03:59:29;;;;;;;21.52;8.82;;;;;;;;;;5033020;28;20033;-71
2023/05/26 04:01:55;;;;;;;41.72;9.90;;;;;;;;;;5032939;28;20167;-73
2023/05/26 04:04:21;;;;;;;28.88;9.85;;;;;;;;;;5029464;28;20480;-72
2023/05/26 04:06:46;;;;;;;19.00;8.90;;;;;;;;;;5033653;28;20040;-72
2023/05/26 04:09:12;;;;;;;25.65;8.32;;;;;;;;;;5027388;28;20041;-73
2023/05/26 04:11:38;;;;;;;16.20;8.00;;;;;;;;;;5030517;28;20564;-73
2023/05/26 04:14:03;;;;;;;19.25;7.85;;;;;;;;;;5044519;28;20082;-72
2023/05/26 04:16:29;;;;;;;14.60;7.75;;;;;;;;;;5052236;28;20082;-72
2023/05/26 04:18:55;;;;;;;13.82;7.60;;;;;;;;;;5032091;28;20037;-73
2023/05/26 04:21:21;;;;;;;15.88;7.47;;;;;;;;;;5015790;28;20100;-73
2023/05/26 04:23:51;;;;;;;14.48;7.40;;;;;;;;;;5049742;28;20404;-72
2023/05/26 04:26:21;;;;;;;11.23;6.43;;;;;;;;;;5051561;28;20043;-72
2023/05/26 04:28:56;;;;;;;17.70;7.30;;;;;;;;;;5052070;28;20124;-72
2023/05/26 04:31:45;;;;;;;15.43;7.50;;;;;;;;;;5045141;28;20465;-72
2023/05/26 04:34:38;;;;;;;24.73;8.23;;;;;;;;;;5051883;28;20035;-72
2023/05/26 04:37:21;;;;;;;17.73;8.70;;;;;;;;;;5052467;28;20124;-72
2023/05/26 04:39:46;;;;;;;17.40;8.48;;;;;;;;;;5053708;28;20119;-72
2023/05/26 04:42:12;;;;;;;29.60;8.90;;;;;;;;;;5053610;28;20028;-72
2023/05/26 04:44:40;;;;;;;21.65;8.75;;;;;;;;;;5052276;28;20040;-72
2023/05/26 04:47:09;;;;;;;13.65;8.00;;;;;;;;;;5052452;28;20029;-72
2023/05/26 04:49:38;;;;;;;20.48;8.25;;;;;;;;;;5052413;28;20391;-73
2023/05/26 04:52:04;;;;;;;18.30;8.60;;;;;;;;;;5053399;28;20149;-72
2023/05/26 04:54:34;;;;;;;25.02;8.38;;;;;;;;;;5051377;28;20052;-73
2023/05/26 04:57:01;;;;;;;27.50;8.90;;;;;;;;;;5053464;28;20039;-73
2023/05/26 04:59:43;;;;;;;19.45;7.90;;;;;;;;;;5052274;28;20029;-73
2023/05/26 05:02:09;;;;;;;12.40;7.03;;;;;;;;;;5052068;28;20037;-74
2023/05/26 05:04:50;;;;;;;26.20;9.35;;;;;;;;;;5050972;28;20113;-72
2023/05/26 05:07:16;;;;;;;13.30;7.53;;;;;;;;;;5051521;28;20033;-72
2023/05/26 05:09:44;;;;;;;32.25;10.82;;;;;;;;;;5051290;28;20021;-72
2023/05/26 05:12:10;;;;;;;29.48;9.75;;;;;;;;;;5051232;28;20098;-71
2023/05/26 05:14:36;;;;;;;36.25;12.07;;;;;;;;;;5050794;28;20045;-71
2023/05/26 05:17:03;;;;;;;32.40;10.52;;;;;;;;;;5048283;28;20031;-72
2023/05/26 05:19:30;;;;;;;28.33;8.55;;;;;;;;;;5020580;28;20033;-72
2023/05/26 05:21:56;;;;;;;18.65;8.98;;;;;;;;;;4994039;28;20026;-73
2023/05/26 05:24:21;;;;;;;20.85;9.13;;;;;;;;;;5011842;28;20052;-72
2023/05/26 05:26:49;;;;;;;21.83;9.77;;;;;;;;;;5010116;28;20041;-74
2023/05/26 05:29:18;;;;;;;29.23;9.88;;;;;;;;;;5010470;28;20037;-73
2023/05/26 05:31:47;;;;;;;15.75;8.55;;;;;;;;;;5014201;28;20029;-73
2023/05/26 05:34:13;;;;;;;27.40;8.77;;;;;;;;;;5018680;28;20083;-74
2023/05/26 05:36:42;;;;;;;18.65;7.55;;;;;;;;;;5010660;28;20069;-72
2023/05/26 05:39:07;;;;;;;18.00;8.98;;;;;;;;;;5020583;28;20065;-73
2023/05/26 05:41:33;;;;;;;19.33;9.00;;;;;;;;;;5014159;28;20495;-72
2023/05/26 05:43:59;;;;;;;22.10;10.05;;;;;;;;;;5029837;28;20476;-73
2023/05/26 05:46:27;;;;;;;27.52;10.70;;;;;;;;;;5029638;28;20379;-72
2023/05/26 05:49:13;;;;;;;20.50;8.98;;;;;;;;;;5031917;28;20444;-73
2023/05/26 05:51:43;;;;;;;29.13;9.63;;;;;;;;;;5046789;28;20041;-72
2023/05/26 05:54:08;;;;;;;20.23;8.48;;;;;;;;;;5046583;28;20475;-72
2023/05/26 05:56:34;;;;;;;17.52;8.93;;;;;;;;;;5029249;28;20041;-73
2023/05/26 05:59:00;;;;;;;19.85;9.13;;;;;;;;;;5030077;28;20059;-72
2023/05/26 06:01:26;;;;;;;22.60;9.07;;;;;;;;;;5029771;28;20053;-72
2023/05/26 06:03:52;;;;;;;25.52;8.60;;;;;;;;;;5029938;28;20487;-71
2023/05/26 06:06:18;;;;;;;25.45;10.32;;;;;;;;;;5029133;28;20425;-72
2023/05/26 06:08:43;;;;;;;17.30;8.77;;;;;;;;;;5029825;28;20028;-72
2023/05/26 06:11:10;;;;;;;22.20;9.63;;;;;;;;;;5029797;28;20438;-73
2023/05/26 06:13:40;;;;;;;15.52;8.95;;;;;;;;;;5030112;28;20075;-72
2023/05/26 06:16:06;;;;;;;26.40;10.85;;;;;;;;;;5030025;28;20045;-72
2023/05/26 06:18:32;;;;;;;31.00;10.05;;;;;;;;;;5029844;28;20099;-72
2023/05/26 06:20:58;;;;;;;17.60;9.57;;;;;;;;;;5030236;28;20132;-72
2023/05/26 06:23:25;;;;;;;20.00;9.43;;;;;;;;;;5030004;28;20112;-72
2023/05/26 06:25:53;;;;;;;32.88;11.52;;;;;;;;;;5028909;28;20140;-72
2023/05/26 06:28:21;;;;;;;19.77;8.82;;;;;;;;;;5046027;28;20025;-72
2023/05/26 06:30:47;;;;;;;26.58;10.35;;;;;;;;;;5031133;28;20155;-72
2023/05/26 06:33:48;;;;;;;21.40;10.10;;;;;;;;;;4950379;29;20548;-73
2023/05/26 06:36:15;;;;;;;27.90;9.02;;;;;;;;;;5008354;28;20073;-73
2023/05/26 06:38:41;;;;;;;27.27;9.77;;;;;;;;;;5029206;28;20299;-72
2023/05/26 06:41:08;;;;;;;20.35;10.02;;;;;;;;;;5029344;28;20033;-74
2023/05/26 06:43:36;;;;;;;29.17;11.20;;;;;;;;;;5028868;28;20057;-73
2023/05/26 06:46:04;;;;;;;24.77;10.77;;;;;;;;;;5045453;28;20056;-71
2023/05/26 06:48:29;;;;;;;21.08;10.70;;;;;;;;;;5028979;28;20491;-72
2023/05/26 06:51:08;;;;;;;24.35;9.60;;;;;;;;;;5029012;28;20407;-72
2023/05/26 06:53:36;;;;;;;16.27;8.73;;;;;;;;;;5045596;28;20103;-72
2023/05/26 06:56:04;;;;;;;16.75;8.25;;;;;;;;;;5028501;28;20025;-73
2023/05/26 06:58:30;;;;;;;20.67;9.60;;;;;;;;;;5045833;28;20034;-74
2023/05/26 07:01:03;;;;;;;19.95;10.10;;;;;;;;;;5028813;28;20056;-72
2023/05/26 07:03:32;;;;;;;19.17;9.85;;;;;;;;;;5045318;28;20462;-72
2023/05/26 07:06:00;;;;;;;16.52;9.07;;;;;;;;;;5028095;28;20041;-72
2023/05/26 07:08:27;;;;;;;23.88;10.88;;;;;;;;;;5028163;28;20033;-72
2023/05/26 07:11:05;;;;;;;20.08;10.90;;;;;;;;;;5028770;28;20033;-73
2023/05/26 07:13:30;;;;;;;17.17;9.50;;;;;;;;;;5029867;28;20025;-71
2023/05/26 07:15:56;;;;;;;19.50;9.52;;;;;;;;;;5026910;28;20376;-73
2023/05/26 07:18:22;;;;;;;18.33;9.70;;;;;;;;;;5024119;28;20044;-71
2023/05/26 07:20:48;;;;;;;16.20;9.15;;;;;;;;;;5008129;28;20029;-71
2023/05/26 07:23:13;;;;;;;14.68;8.27;;;;;;;;;;5019582;28;20036;-72
2023/05/26 07:25:39;;;;;;;18.15;8.93;;;;;;;;;;5029243;28;20029;-73
2023/05/26 07:28:05;;;;;;;13.43;8.45;;;;;;;;;;5011412;28;20056;-72
2023/05/26 07:30:30;;;;;;;17.50;8.77;;;;;;;;;;5010596;28;20058;-71
2023/05/26 07:33:04;;;;;;;;;;;;;;;;;;5011878;28;20041;-72
2023/05/26 07:35:29;;;;;;;15.75;8.65;;;;;;;;;;5026334;28;19913;-72
2023/05/26 07:37:56;;;;;;;16.17;9.07;;;;;;;;;;5023602;28;20047;-72
2023/05/26 07:40:22;;;;;;;20.23;9.45;;;;;;;;;;5023757;28;20046;-72
2023/05/26 07:42:47;;;;;;;16.27;9.32;;;;;;;;;;5013251;28;20041;-72
2023/05/26 07:45:13;;;;;;;18.05;8.75;;;;;;;;;;5028922;28;20099;-72
2023/05/26 07:47:40;;;;;;;13.77;8.38;;;;;;;;;;5044791;28;20032;-74
2023/05/26 07:50:07;;;;;;;14.25;8.15;;;;;;;;;;5030245;28;20108;-73
2023/05/26 07:52:33;;;;;;;12.90;7.88;;;;;;;;;;5029838;28;20574;-73
2023/05/26 07:54:59;;;;;;;18.90;8.88;;;;;;;;;;5029531;28;20057;-72
2023/05/26 07:57:25;;;;;;;17.35;7.43;;;;;;;;;;5028423;28;20238;-73
2023/05/26 07:59:51;;;;;;;21.02;8.02;;;;;;;;;;5028473;28;20041;-73
2023/05/26 08:02:16;;;;;;;11.90;8.25;;;;;;;;;;5029986;28;20029;-72
2023/05/26 08:04:42;;;;;;;11.05;8.20;;;;;;;;;;5010139;28;20038;-72
2023/05/26 08:07:08;;;;;;;9.98;7.70;;;;;;;;;;5010751;28;20029;-72
2023/05/26 08:09:34;;;;;;;13.52;7.90;;;;;;;;;;5044098;28;20037;-73
2023/05/26 08:12:00;;;;;;;13.63;8.13;;;;;;;;;;5030574;28;20037;-74
2023/05/26 08:14:26;;;;;;;13.68;7.72;;;;;;;;;;5030285;28;20029;-74
2023/05/26 08:16:52;;;;;;;17.00;7.78;;;;;;;;;;5030638;28;20482;-74
2023/05/26 08:19:18;;;;;;;15.57;7.47;;;;;;;;;;5030955;28;20033;-73
2023/05/26 08:21:43;;;;;;;14.57;6.65;;;;;;;;;;5030675;28;20018;-73
2023/05/26 08:24:10;;;;;;;15.00;6.82;;;;;;;;;;5030109;28;20030;-74
2023/05/26 08:26:36;;;;;;;11.88;7.15;;;;;;;;;;5029773;28;20391;-74
2023/05/26 08:29:01;;;;;;;11.15;6.93;;;;;;;;;;5030062;28;20038;-73
2023/05/26 08:31:27;;;;;;;12.75;7.32;;;;;;;;;;5033475;28;20025;-74
2023/05/26 08:33:56;;;;;;;11.05;6.82;;;;;;;;;;5031385;28;20044;-73
2023/05/26 08:36:21;;;;;;;13.10;6.78;;;;;;;;;;5032453;28;20428;-75
2023/05/26 08:38:48;;;;;;;9.30;6.97;;;;;;;;;;5021839;28;20051;-73
2023/05/26 08:41:20;;;;;;;10.23;7.10;;;;;;;;;;5021486;28;20025;-73
2023/05/26 08:43:57;;;;;;;14.50;7.07;;;;;;;;;;5048341;28;20037;-75
2023/05/26 08:46:23;;;;;;;9.82;6.07;;;;;;;;;;5041002;28;20072;-74
2023/05/26 08:48:50;;;;;;;10.93;5.57;;;;;;;;;;5036494;28;20025;-71
2023/05/26 08:51:16;;;;;;;10.13;6.40;;;;;;;;;;5029736;28;20029;-77
2023/05/26 08:53:43;;;;;;;8.52;5.85;;;;;;;;;;5041159;28;20086;-72
2023/05/26 08:56:09;;;;;;;9.85;6.55;;;;;;;;;;5051319;28;20103;-75
2023/05/26 08:58:36;;;;;;;9.98;5.97;;;;;;;;;;5049780;28;20036;-75
2023/05/26 09:01:02;;;;;;;10.90;6.25;;;;;;;;;;5051679;28;20073;-75
2023/05/26 09:03:28;;;;;;;8.82;5.10;;;;;;;;;;5049983;28;20044;-76
2023/05/26 09:05:54;;;;;;;8.93;4.90;;;;;;;;;;5052153;28;20528;-75
2023/05/26 09:08:20;;;;;;;6.30;4.78;;;;;;;;;;5052050;28;20232;-76
2023/05/26 09:10:46;;;;;;;7.53;5.35;;;;;;;;;;5052472;28;20060;-76
2023/05/26 09:13:21;;;;;;;10.43;5.30;;;;;;;;;;5053030;28;20040;-74
2023/05/26 09:15:51;;;;;;;8.10;5.22;;;;;;;;;;5052785;28;20458;-75
2023/05/26 09:18:18;;;;;;;8.73;4.70;;;;;;;;;;5052968;28;20037;-76
2023/05/26 09:20:48;;;;;;;8.45;4.65;;;;;;;;;;5052672;28;20078;-76
2023/05/26 09:23:17;;;;;;;10.90;4.60;;;;;;;;;;5052547;28;20099;-74
2023/05/26 09:25:45;;;;;;;11.88;5.78;;;;;;;;;;5052570;28;20105;-74
2023/05/26 09:28:15;;;;;;;8.80;4.60;;;;;;;;;;5027759;28;20455;-74
2023/05/26 09:30:46;;;;;;;6.85;4.50;;;;;;;;;;5011652;28;20495;-77
2023/05/26 09:33:17;;;;;;;9.38;4.45;;;;;;;;;;5012191;28;20036;-77
2023/05/26 09:35:47;;;;;;;5.40;3.47;;;;;;;;;;5011699;28;20037;-76
2023/05/26 09:38:15;;;;;;;6.07;4.50;;;;;;;;;;5011645;28;20044;-76
2023/05/26 09:40:41;;;;;;;4.85;3.60;;;;;;;;;;5027504;28;20108;-76
2023/05/26 09:43:08;;;;;;;5.30;3.60;;;;;;;;;;5030819;28;20059;-77
2023/05/26 09:45:35;;;;;;;6.57;4.18;;;;;;;;;;5030301;28;20387;-74
2023/05/26 09:48:06;;;;;;;8.02;3.80;;;;;;;;;;5029593;28;20080;-75
2023/05/26 09:50:33;;;;;;;7.65;3.80;;;;;;;;;;5030222;28;20510;-75
2023/05/26 09:53:04;;;;;;;6.20;3.88;;;;;;;;;;5032100;28;20040;-75
2023/05/26 09:55:31;;;;;;;6.28;3.90;;;;;;;;;;5030503;28;20160;-75
2023/05/26 09:58:08;;;;;;;5.57;3.40;;;;;;;;;;5032974;28;20032;-75
2023/05/26 10:00:38;;;;;;;4.93;3.15;;;;;;;;;;5031477;28;20052;-76
2023/05/26 10:03:07;;;;;;;5.32;3.67;;;;;;;;;;5047009;28;20387;-75
2023/05/26 10:05:39;;;;;;;5.40;3.88;;;;;;;;;;5031109;28;20060;-74
2023/05/26 10:08:06;;;;;;;9.18;3.70;;;;;;;;;;5031968;28;20052;-74
2023/05/26 10:10:33;;;;;;;5.53;3.28;;;;;;;;;;5031380;28;20402;-74
2023/05/26 10:12:59;;;;;;;14.77;4.57;;;;;;;;;;5030599;28;20573;-74
2023/05/26 10:15:25;;;;;;;6.88;3.90;;;;;;;;;;5031239;28;20066;-75
2023/05/26 10:17:52;;;;;;;6.53;4.15;;;;;;;;;;5031352;28;20128;-74
2023/05/26 10:20:18;;;;;;;4.07;3.20;;;;;;;;;;5030338;28;20475;-76
2023/05/26 10:23:00;;;;;;;5.50;3.50;;;;;;;;;;5030311;28;20107;-75
2023/05/26 10:25:38;;;;;;;6.85;3.47;;;;;;;;;;5029854;28;20510;-75
2023/05/26 10:28:19;;;;;;;7.85;3.92;;;;;;;;;;5031615;28;20291;-75
2023/05/26 10:30:45;;;;;;;6.55;3.35;;;;;;;;;;5031596;28;20121;-76
2023/05/26 10:33:12;;;;;;;5.22;3.55;;;;;;;;;;5046912;28;20116;-74
2023/05/26 10:35:53;;;;;;;5.88;3.35;;;;;;;;;;5029288;28;20041;-74
2023/05/26 10:38:19;;;;;;;6.10;2.80;;;;;;;;;;5024461;28;20401;-75
2023/05/26 10:40:50;;;;;;;3.20;2.47;;;;;;;;;;5030658;28;20019;-73
2023/05/26 10:43:22;;;;;;;3.35;2.38;;;;;;;;;;5036027;28;20044;-73
2023/05/26 10:45:57;;;;;;;7.55;3.08;;;;;;;;;;5021623;28;20096;-73
2023/05/26 10:48:36;;;;;;;4.50;2.40;;;;;;;;;;5035628;28;20406;-74
2023/05/26 10:51:06;;;;;;;3.50;2.20;;;;;;;;;;5037890;28;20084;-74
2023/05/26 10:53:36;;;;;;;5.32;2.33;;;;;;;;;;5036861;28;20037;-72
2023/05/26 10:56:08;;;;;;;7.55;3.47;;;;;;;;;;5041271;28;20016;-71
2023/05/26 10:58:45;;;;;;;4.65;2.10;;;;;;;;;;5038630;28;20033;-77
2023/05/26 11:01:16;;;;;;;4.32;2.03;;;;;;;;;;5038031;28;20036;-74
2023/05/26 11:03:43;;;;;;;3.08;1.90;;;;;;;;;;5029826;28;20480;-74
2023/05/26 11:06:12;;;;;;;2.58;1.75;;;;;;;;;;5037684;28;20022;-74
2023/05/26 11:08:45;;;;;;;2.63;1.88;;;;;;;;;;5029483;28;20541;-75
2023/05/26 11:11:26;;;;;;;4.35;1.92;;;;;;;;;;5011928;28;20479;-73
2023/05/26 11:14:02;;;;;;;6.38;1.88;;;;;;;;;;5009720;28;20040;-73
2023/05/26 11:16:32;;;;;;;3.33;1.60;;;;;;;;;;5010882;28;20109;-75
2023/05/26 11:19:03;;;;;;;3.67;1.67;;;;;;;;;;5010462;28;20041;-73
2023/05/26 11:21:31;;;;;;;2.72;1.52;;;;;;;;;;5011775;28;20049;-74
2023/05/26 11:23:59;;;;;;;4.32;1.90;;;;;;;;;;5011763;28;20424;-74
2023/05/26 11:26:27;;;;;;;4.82;1.73;;;;;;;;;;5012073;28;20030;-73
2023/05/26 11:28:54;;;;;;;3.03;1.83;;;;;;;;;;5011844;28;20112;-74
2023/05/26 11:31:22;;;;;;;4.47;1.67;;;;;;;;;;5027147;28;20038;-74
2023/05/26 11:33:48;;;;;;;3.85;1.70;;;;;;;;;;5011353;28;20106;-75
2023/05/26 11:36:17;;;;;;;3.03;1.88;;;;;;;;;;5011007;28;20489;-76
2023/05/26 11:38:45;;;;;;;2.45;1.70;;;;;;;;;;5012144;28;20048;-75
2023/05/26 11:41:17;;;;;;;3.92;1.80;;;;;;;;;;5025792;28;20421;-74
2023/05/26 11:43:46;;;;;;;4.35;2.00;;;;;;;;;;5011099;28;20053;-75
2023/05/26 11:46:16;;;;;;;5.55;1.63;;;;;;;;;;5011089;28;20279;-73
2023/05/26 11:48:43;;;;;;;3.10;1.90;;;;;;;;;;5011355;28;20391;-75
2023/05/26 11:51:12;;;;;;;4.03;1.77;;;;;;;;;;5026734;28;20468;-74
2023/05/26 11:53:39;;;;;;;3.30;1.75;;;;;;;;;;5011552;28;20484;-75
2023/05/26 11:56:07;;;;;;;5.13;1.60;;;;;;;;;;5011558;28;20022;-74
2023/05/26 11:58:37;;;;;;;3.00;1.77;;;;;;;;;;5011614;28;20199;-73
2023/05/26 12:01:05;;;;;;;4.78;2.20;;;;;;;;;;5011310;28;20077;-74
2023/05/26 12:03:36;;;;;;;3.70;1.83;;;;;;;;;;5011133;28;20041;-75
2023/05/26 12:06:18;;;;;;;3.70;1.92;;;;;;;;;;5013743;28;20034;-76
2023/05/26 12:08:59;;;;;;;2.85;1.60;;;;;;;;;;5015156;28;20042;-75
2023/05/26 12:11:34;;;;;;;2.95;1.50;;;;;;;;;;5015402;28;20045;-73
2023/05/26 12:14:11;;;;;;;2.55;1.55;;;;;;;;;;5015281;28;20400;-74
2023/05/26 12:16:39;;;;;;;4.05;1.90;;;;;;;;;;5014783;28;20052;-74
2023/05/26 12:19:07;;;;;;;3.97;2.10;;;;;;;;;;5015272;28;20422;-76
2023/05/26 12:21:44;;;;;;;2.88;1.80;;;;;;;;;;5015343;28;20069;-73
2023/05/26 12:24:10;;;;;;;6.82;2.08;;;;;;;;;;5014556;28;20107;-73
2023/05/26 12:26:37;;;;;;;3.40;1.83;;;;;;;;;;5015093;28;20029;-75
2023/05/26 12:29:16;;;;;;;3.28;1.60;;;;;;;;;;5014876;28;20038;-75
2023/05/26 12:31:50;;;;;;;3.97;1.83;;;;;;;;;;5014732;28;20033;-75
2023/05/26 12:34:23;;;;;;;3.78;1.85;;;;;;;;;;5014835;28;20495;-74
2023/05/26 12:36:50;;;;;;;5.53;1.77;;;;;;;;;;5014709;28;20045;-75
2023/05/26 12:39:17;;;;;;;5.38;1.70;;;;;;;;;;5014856;28;20030;-74
2023/05/26 12:41:47;;;;;;;2.95;1.73;;;;;;;;;;5015224;28;20038;-76
2023/05/26 12:44:16;;;;;;;1.92;1.25;;;;;;;;;;5014837;28;20093;-75
2023/05/26 12:46:44;;;;;;;3.38;1.70;;;;;;;;;;5014821;28;20030;-75
2023/05/26 12:49:10;;;;;;;3.22;1.83;;;;;;;;;;5014687;28;20116;-74
2023/05/26 12:51:41;;;;;;;3.80;1.70;;;;;;;;;;5014448;28;20036;-74
2023/05/26 12:54:08;;;;;;;4.70;1.60;;;;;;;;;;4996624;28;20443;-74
2023/05/26 12:56:35;;;;;;;4.07;1.50;;;;;;;;;;5014266;28;20099;-75
2023/05/26 12:59:00;;;;;;;3.55;1.55;;;;;;;;;;5014615;28;20038;-73
2023/05/26 13:01:26;;;;;;;2.80;1.33;;;;;;;;;;5014454;28;20032;-75
2023/05/26 13:03:52;;;;;;;2.65;1.48;;;;;;;;;;5014538;28;20073;-74
2023/05/26 13:06:19;;;;;;;2.33;1.33;;;;;;;;;;5014449;28;20029;-73
2023/05/26 13:08:45;;;;;;;3.22;1.50;;;;;;;;;;5014852;28;20092;-74
2023/05/26 13:11:11;;;;;;;2.85;1.50;;;;;;;;;;5014030;28;20488;-74
2023/05/26 13:13:41;;;;;;;4.60;1.52;;;;;;;;;;5014032;28;20034;-74
2023/05/26 13:16:12;;;;;;;3.35;2.08;;;;;;;;;;5013906;28;20041;-76
2023/05/26 13:18:40;;;;;;;4.20;1.50;;;;;;;;;;5014250;28;20049;-73
2023/05/26 13:21:07;;;;;;;3.33;1.65;;;;;;;;;;5014271;28;20030;-73
2023/05/26 13:23:35;;;;;;;2.75;1.20;;;;;;;;;;5029088;28;20120;-74
2023/05/26 13:26:02;;;;;;;3.25;1.20;;;;;;;;;;5013781;28;20515;-74
2023/05/26 13:28:28;;;;;;;4.55;1.27;;;;;;;;;;5013702;28;20037;-74
2023/05/26 13:30:54;;;;;;;2.20;1.13;;;;;;;;;;5014255;28;20021;-74
2023/05/26 13:33:20;;;;;;;1.88;1.13;;;;;;;;;;5029364;28;20142;-74
2023/05/26 13:35:46;;;;;;;1.95;1.40;;;;;;;;;;5013737;28;20029;-75
2023/05/26 13:38:12;;;;;;;3.03;1.20;;;;;;;;;;5014052;28;20059;-75
2023/05/26 13:40:38;;;;;;;2.65;1.50;;;;;;;;;;5012167;28;20044;-75
2023/05/26 13:43:04;;;;;;;2.10;1.30;;;;;;;;;;5028886;28;20042;-75
2023/05/26 13:45:32;;;;;;;3.38;1.38;;;;;;;;;;5013742;28;20018;-74
2023/05/26 13:47:58;;;;;;;3.47;1.23;;;;;;;;;;5012434;28;20057;-74
2023/05/26 13:50:24;;;;;;;3.33;1.27;;;;;;;;;;5042729;28;20250;-75
2023/05/26 13:52:50;;;;;;;2.20;1.40;;;;;;;;;;5032678;28;20037;-75
2023/05/26 13:55:17;;;;;;;4.00;1.33;;;;;;;;;;5052378;28;20033;-74
2023/05/26 13:57:42;;;;;;;6.70;2.78;;;;;;;;;;5031315;28;20060;-73
2023/05/26 14:00:09;;;;;;;3.83;1.42;;;;;;;;;;5036642;28;20026;-75
2023/05/26 14:02:41;;;;;;;2.05;1.25;;;;;;;;;;5038563;28;20043;-75
2023/05/26 14:05:07;;;;;;;5.15;1.50;;;;;;;;;;5034682;28;20138;-73
2023/05/26 14:07:32;;;;;;;2.92;1.90;;;;;;;;;;5028603;28;20040;-74
2023/05/26 14:09:58;;;;;;;3.28;1.52;;;;;;;;;;5036436;28;20386;-75
2023/05/26 14:12:24;;;;;;;3.65;1.48;;;;;;;;;;5040634;28;20033;-74
2023/05/26 14:14:50;;;;;;;2.17;1.45;;;;;;;;;;5043564;28;20017;-74
2023/05/26 14:17:16;;;;;;;3.58;1.80;;;;;;;;;;5033852;28;20036;-73
2023/05/26 14:19:42;;;;;;;4.47;1.40;;;;;;;;;;5040411;28;20025;-72
2023/05/26 14:22:08;;;;;;;4.10;1.60;;;;;;;;;;5037456;28;20021;-73
2023/05/26 14:24:34;;;;;;;2.45;1.30;;;;;;;;;;5031061;28;20049;-72
2023/05/26 14:26:59;;;;;;;3.13;1.25;;;;;;;;;;5038476;28;20034;-74
2023/05/26 14:29:26;;;;;;;5.10;1.67;;;;;;;;;;5031904;28;20490;-74
2023/05/26 14:31:52;;;;;;;2.40;1.38;;;;;;;;;;5026922;28;20018;-75
2023/05/26 14:34:18;;;;;;;3.15;1.40;;;;;;;;;;5012304;28;20126;-74
2023/05/26 14:36:43;;;;;;;3.05;1.27;;;;;;;;;;5011639;28;20022;-73
2023/05/26 14:39:11;;;;;;;3.67;1.55;;;;;;;;;;5011651;28;20063;-72
2023/05/26 14:41:36;;;;;;;5.78;1.30;;;;;;;;;;5011563;28;20024;-76